sensor_id;sensor_type;location;lat;lon;timestamp;temperature;humidity
59309;DHT22;48433;53.016;-2.260;2023-02-18T00:01:55;11.70;99.90
59309;DHT22;48433;53.016;-2.260;2023-02-18T00:04:22;11.70;99.90
59309;DHT22;48433;53.016;-2.260;2023-02-18T00:06:50;11.70;99.90
59309;DHT22;48433;53.016;-2.260;2023-02-18T00:09:17;11.70;99.90
59309;DHT22;48433;53.016;-2.260;2023-02-18T00:11:45;11.70;99.90
59309;DHT22;48433;53.016;-2.260;2023-02-18T00:14:14;11.70;99.90
59309;DHT22;48433;53.016;-2.260;2023-02-18T00:16:43;11.70;99.90
59309;DHT22;48433;53.016;-2.260;2023-02-18T00:19:14;11.70;99.90
59309;DHT22;48433;53.016;-2.260;2023-02-18T00:21:42;11.70;99.90
59309;DHT22;48433;53.016;-2.260;2023-02-18T00:24:13;11.60;99.90
59309;DHT22;48433;53.016;-2.260;2023-02-18T00:26:44;11.60;99.90
59309;DHT22;48433;53.016;-2.260;2023-02-18T00:29:12;11.50;99.90
59309;DHT22;48433;53.016;-2.260;2023-02-18T00:31:41;11.50;99.90
59309;DHT22;48433;53.016;-2.260;2023-02-18T00:34:10;11.50;99.90
59309;DHT22;48433;53.016;-2.260;2023-02-18T00:36:39;11.50;99.90
59309;DHT22;48433;53.016;-2.260;2023-02-18T00:39:09;11.50;99.90
59309;DHT22;48433;53.016;-2.260;2023-02-18T00:41:38;11.40;99.90
59309;DHT22;48433;53.016;-2.260;2023-02-18T00:44:07;11.40;99.90
59309;DHT22;48433;53.016;-2.260;2023-02-18T00:46:35;11.40;99.90
59309;DHT22;48433;53.016;-2.260;2023-02-18T00:49:03;11.40;99.90
59309;DHT22;48433;53.016;-2.260;2023-02-18T00:51:32;11.40;99.90
59309;DHT22;48433;53.016;-2.260;2023-02-18T00:54:00;11.50;99.90
59309;DHT22;48433;53.016;-2.260;2023-02-18T00:56:27;11.50;99.90
59309;DHT22;48433;53.016;-2.260;2023-02-18T00:58:55;11.50;99.90
59309;DHT22;48433;53.016;-2.260;2023-02-18T01:01:23;11.40;99.90
59309;DHT22;48433;53.016;-2.260;2023-02-18T01:03:50;11.40;99.90
59309;DHT22;48433;53.016;-2.260;2023-02-18T01:06:18;11.40;99.90
59309;DHT22;48433;53.016;-2.260;2023-02-18T01:08:47;11.40;99.90
59309;DHT22;48433;53.016;-2.260;2023-02-18T01:11:16;11.40;99.90
59309;DHT22;48433;53.016;-2.260;2023-02-18T01:13:43;11.40;99.90
59309;DHT22;48433;53.016;-2.260;2023-02-18T01:16:11;11.40;99.90
59309;DHT22;48433;53.016;-2.260;2023-02-18T01:18:39;11.40;99.90
59309;DHT22;48433;53.016;-2.260;2023-02-18T01:21:07;11.40;99.90
59309;DHT22;48433;53.016;-2.260;2023-02-18T01:23:38;11.40;99.90
59309;DHT22;48433;53.016;-2.260;2023-02-18T01:26:07;11.40;99.90
59309;DHT22;48433;53.016;-2.260;2023-02-18T01:28:38;11.40;99.90
59309;DHT22;48433;53.016;-2.260;2023-02-18T01:31:09;11.40;99.90
59309;DHT22;48433;53.016;-2.260;2023-02-18T01:33:37;11.30;99.90
59309;DHT22;48433;53.016;-2.260;2023-02-18T01:36:06;11.30;99.90
59309;DHT22;48433;53.016;-2.260;2023-02-18T01:38:34;11.40;99.90
59309;DHT22;48433;53.016;-2.260;2023-02-18T01:41:02;11.30;99.90
59309;DHT22;48433;53.016;-2.260;2023-02-18T01:43:30;11.30;99.90
59309;DHT22;48433;53.016;-2.260;2023-02-18T01:46:19;11.30;99.90
59309;DHT22;48433;53.016;-2.260;2023-02-18T01:48:54;11.30;99.90
59309;DHT22;48433;53.016;-2.260;2023-02-18T01:51:35;11.30;99.90
59309;DHT22;48433;53.016;-2.260;2023-02-18T01:54:05;11.30;99.90
59309;DHT22;48433;53.016;-2.260;2023-02-18T01:56:48;11.20;99.90
59309;DHT22;48433;53.016;-2.260;2023-02-18T01:59:30;11.20;99.90
59309;DHT22;48433;53.016;-2.260;2023-02-18T02:01:58;11.20;99.90
59309;DHT22;48433;53.016;-2.260;2023-02-18T02:04:29;11.20;99.90
59309;DHT22;48433;53.016;-2.260;2023-02-18T02:06:57;11.20;99.90
59309;DHT22;48433;53.016;-2.260;2023-02-18T02:09:28;11.20;99.90
59309;DHT22;48433;53.016;-2.260;2023-02-18T02:37:49;11.10;99.90
59309;DHT22;48433;53.016;-2.260;2023-02-18T02:49:17;11.20;99.90
59309;DHT22;48433;53.016;-2.260;2023-02-18T02:54:10;11.20;99.90
59309;DHT22;48433;53.016;-2.260;2023-02-18T02:56:39;11.20;99.90
59309;DHT22;48433;53.016;-2.260;2023-02-18T02:59:13;11.20;99.90
59309;DHT22;48433;53.016;-2.260;2023-02-18T03:02:24;11.20;99.90
59309;DHT22;48433;53.016;-2.260;2023-02-18T03:08:02;11.20;99.90
59309;DHT22;48433;53.016;-2.260;2023-02-18T03:10:44;11.20;99.90
59309;DHT22;48433;53.016;-2.260;2023-02-18T03:16:27;11.20;99.90
59309;DHT22;48433;53.016;-2.260;2023-02-18T03:18:53;11.30;99.90
59309;DHT22;48433;53.016;-2.260;2023-02-18T03:21:28;11.30;99.90
59309;DHT22;48433;53.016;-2.260;2023-02-18T03:27:36;11.30;99.90
59309;DHT22;48433;53.016;-2.260;2023-02-18T03:30:14;11.30;99.90
59309;DHT22;48433;53.016;-2.260;2023-02-18T03:32:44;11.30;99.90
59309;DHT22;48433;53.016;-2.260;2023-02-18T03:35:15;11.30;99.90
59309;DHT22;48433;53.016;-2.260;2023-02-18T03:40:37;11.30;99.90
59309;DHT22;48433;53.016;-2.260;2023-02-18T03:43:05;11.30;99.90
59309;DHT22;48433;53.016;-2.260;2023-02-18T03:45:33;11.30;99.90
59309;DHT22;48433;53.016;-2.260;2023-02-18T03:48:01;11.30;99.90
59309;DHT22;48433;53.016;-2.260;2023-02-18T03:52:56;11.30;99.90
59309;DHT22;48433;53.016;-2.260;2023-02-18T03:55:24;11.30;99.90
59309;DHT22;48433;53.016;-2.260;2023-02-18T03:57:52;11.30;99.90
59309;DHT22;48433;53.016;-2.260;2023-02-18T04:00:20;11.30;99.90
59309;DHT22;48433;53.016;-2.260;2023-02-18T04:02:47;11.30;99.90
59309;DHT22;48433;53.016;-2.260;2023-02-18T04:05:15;11.30;99.90
59309;DHT22;48433;53.016;-2.260;2023-02-18T04:07:42;11.30;99.90
59309;DHT22;48433;53.016;-2.260;2023-02-18T04:10:10;11.30;99.90
59309;DHT22;48433;53.016;-2.260;2023-02-18T04:12:38;11.30;99.90
59309;DHT22;48433;53.016;-2.260;2023-02-18T04:15:06;11.30;99.90
59309;DHT22;48433;53.016;-2.260;2023-02-18T04:17:34;11.30;99.90
59309;DHT22;48433;53.016;-2.260;2023-02-18T04:20:01;11.30;99.90
59309;DHT22;48433;53.016;-2.260;2023-02-18T04:22:31;11.20;99.90
59309;DHT22;48433;53.016;-2.260;2023-02-18T04:24:58;11.70;99.90
59309;DHT22;48433;53.016;-2.260;2023-02-18T04:27:26;11.30;99.90
59309;DHT22;48433;53.016;-2.260;2023-02-18T04:29:54;11.20;99.90
59309;DHT22;48433;53.016;-2.260;2023-02-18T04:32:22;11.20;99.90
59309;DHT22;48433;53.016;-2.260;2023-02-18T04:34:49;11.20;99.90
59309;DHT22;48433;53.016;-2.260;2023-02-18T04:37:17;11.20;99.90
59309;DHT22;48433;53.016;-2.260;2023-02-18T04:39:45;11.20;99.90
59309;DHT22;48433;53.016;-2.260;2023-02-18T04:42:12;11.20;99.90
59309;DHT22;48433;53.016;-2.260;2023-02-18T04:44:40;11.20;99.90
59309;DHT22;48433;53.016;-2.260;2023-02-18T04:47:07;11.20;99.90
59309;DHT22;48433;53.016;-2.260;2023-02-18T04:49:35;11.20;99.90
59309;DHT22;48433;53.016;-2.260;2023-02-18T04:52:03;11.20;99.90
59309;DHT22;48433;53.016;-2.260;2023-02-18T04:54:30;11.30;99.90
59309;DHT22;48433;53.016;-2.260;2023-02-18T04:56:58;11.30;99.90
59309;DHT22;48433;53.016;-2.260;2023-02-18T04:59:26;11.30;99.90
59309;DHT22;48433;53.016;-2.260;2023-02-18T05:01:53;11.30;99.90
59309;DHT22;48433;53.016;-2.260;2023-02-18T05:04:21;11.30;99.90
59309;DHT22;48433;53.016;-2.260;2023-02-18T05:06:48;11.30;99.90
59309;DHT22;48433;53.016;-2.260;2023-02-18T05:09:16;11.30;99.90
59309;DHT22;48433;53.016;-2.260;2023-02-18T05:11:44;11.30;99.90
59309;DHT22;48433;53.016;-2.260;2023-02-18T05:14:14;11.30;99.90
59309;DHT22;48433;53.016;-2.260;2023-02-18T05:16:42;11.30;99.90
59309;DHT22;48433;53.016;-2.260;2023-02-18T05:19:13;11.30;99.90
59309;DHT22;48433;53.016;-2.260;2023-02-18T05:21:41;11.40;99.90
59309;DHT22;48433;53.016;-2.260;2023-02-18T05:24:09;11.30;99.90
59309;DHT22;48433;53.016;-2.260;2023-02-18T05:26:37;11.30;99.90
59309;DHT22;48433;53.016;-2.260;2023-02-18T05:29:04;11.40;99.90
59309;DHT22;48433;53.016;-2.260;2023-02-18T05:31:32;11.40;99.90
59309;DHT22;48433;53.016;-2.260;2023-02-18T05:34:00;11.40;99.90
59309;DHT22;48433;53.016;-2.260;2023-02-18T05:36:27;11.40;99.90
59309;DHT22;48433;53.016;-2.260;2023-02-18T05:38:55;11.40;99.90
59309;DHT22;48433;53.016;-2.260;2023-02-18T05:41:23;11.40;99.90
59309;DHT22;48433;53.016;-2.260;2023-02-18T05:43:50;11.40;99.90
59309;DHT22;48433;53.016;-2.260;2023-02-18T05:46:36;11.40;99.90
59309;DHT22;48433;53.016;-2.260;2023-02-18T05:49:04;11.30;99.90
59309;DHT22;48433;53.016;-2.260;2023-02-18T05:51:32;11.30;99.90
59309;DHT22;48433;53.016;-2.260;2023-02-18T05:53:59;11.20;99.90
59309;DHT22;48433;53.016;-2.260;2023-02-18T05:56:27;11.20;99.90
59309;DHT22;48433;53.016;-2.260;2023-02-18T05:58:55;11.10;99.90
59309;DHT22;48433;53.016;-2.260;2023-02-18T06:01:22;11.00;99.90
59309;DHT22;48433;53.016;-2.260;2023-02-18T06:03:50;11.00;99.90
59309;DHT22;48433;53.016;-2.260;2023-02-18T06:06:18;11.10;99.90
59309;DHT22;48433;53.016;-2.260;2023-02-18T06:08:45;11.00;99.90
59309;DHT22;48433;53.016;-2.260;2023-02-18T06:11:13;11.10;99.90
59309;DHT22;48433;53.016;-2.260;2023-02-18T06:13:40;11.10;99.90
59309;DHT22;48433;53.016;-2.260;2023-02-18T06:16:08;11.10;99.90
59309;DHT22;48433;53.016;-2.260;2023-02-18T06:18:36;11.20;99.90
59309;DHT22;48433;53.016;-2.260;2023-02-18T06:23:32;11.20;99.90
59309;DHT22;48433;53.016;-2.260;2023-02-18T06:26:00;11.20;99.90
59309;DHT22;48433;53.016;-2.260;2023-02-18T06:28:27;11.20;99.90
59309;DHT22;48433;53.016;-2.260;2023-02-18T06:30:55;11.20;99.90
59309;DHT22;48433;53.016;-2.260;2023-02-18T06:33:25;11.20;99.90
59309;DHT22;48433;53.016;-2.260;2023-02-18T06:35:58;11.20;99.90
59309;DHT22;48433;53.016;-2.260;2023-02-18T06:38:26;11.20;99.90
59309;DHT22;48433;53.016;-2.260;2023-02-18T06:40:54;11.30;99.90
59309;DHT22;48433;53.016;-2.260;2023-02-18T06:43:22;11.20;99.90
59309;DHT22;48433;53.016;-2.260;2023-02-18T06:45:50;11.20;99.90
59309;DHT22;48433;53.016;-2.260;2023-02-18T06:48:21;11.20;99.90
59309;DHT22;48433;53.016;-2.260;2023-02-18T06:50:51;11.20;99.90
59309;DHT22;48433;53.016;-2.260;2023-02-18T06:53:26;11.20;99.90
59309;DHT22;48433;53.016;-2.260;2023-02-18T06:56:11;11.20;99.90
59309;DHT22;48433;53.016;-2.260;2023-02-18T06:58:39;11.20;99.90
59309;DHT22;48433;53.016;-2.260;2023-02-18T07:01:06;11.20;99.90
59309;DHT22;48433;53.016;-2.260;2023-02-18T07:03:34;11.20;99.90
59309;DHT22;48433;53.016;-2.260;2023-02-18T07:06:05;11.20;99.90
59309;DHT22;48433;53.016;-2.260;2023-02-18T07:08:33;11.20;99.90
59309;DHT22;48433;53.016;-2.260;2023-02-18T07:11:04;11.20;99.90
59309;DHT22;48433;53.016;-2.260;2023-02-18T07:13:33;11.20;99.90
59309;DHT22;48433;53.016;-2.260;2023-02-18T07:16:04;11.20;99.90
59309;DHT22;48433;53.016;-2.260;2023-02-18T07:18:32;11.20;99.90
59309;DHT22;48433;53.016;-2.260;2023-02-18T07:21:00;11.20;99.90
59309;DHT22;48433;53.016;-2.260;2023-02-18T07:23:27;11.20;99.90
59309;DHT22;48433;53.016;-2.260;2023-02-18T07:26:10;11.20;99.90
59309;DHT22;48433;53.016;-2.260;2023-02-18T07:28:39;11.20;99.90
59309;DHT22;48433;53.016;-2.260;2023-02-18T07:31:07;11.20;99.90
59309;DHT22;48433;53.016;-2.260;2023-02-18T07:33:35;11.20;99.90
59309;DHT22;48433;53.016;-2.260;2023-02-18T07:36:03;11.20;99.90
59309;DHT22;48433;53.016;-2.260;2023-02-18T07:38:30;11.20;99.90
59309;DHT22;48433;53.016;-2.260;2023-02-18T07:40:58;11.20;99.90
59309;DHT22;48433;53.016;-2.260;2023-02-18T07:43:26;11.20;99.90
59309;DHT22;48433;53.016;-2.260;2023-02-18T07:46:06;11.20;99.90
59309;DHT22;48433;53.016;-2.260;2023-02-18T07:48:35;11.20;99.90
59309;DHT22;48433;53.016;-2.260;2023-02-18T07:51:07;11.20;99.90
59309;DHT22;48433;53.016;-2.260;2023-02-18T07:53:44;11.20;99.90
59309;DHT22;48433;53.016;-2.260;2023-02-18T07:56:12;11.20;99.90
59309;DHT22;48433;53.016;-2.260;2023-02-18T07:58:39;11.20;99.90
59309;DHT22;48433;53.016;-2.260;2023-02-18T08:01:11;11.30;99.90
59309;DHT22;48433;53.016;-2.260;2023-02-18T08:03:48;11.30;99.90
59309;DHT22;48433;53.016;-2.260;2023-02-18T08:06:21;11.40;99.90
59309;DHT22;48433;53.016;-2.260;2023-02-18T08:08:51;11.40;99.90
59309;DHT22;48433;53.016;-2.260;2023-02-18T08:11:19;11.50;99.90
59309;DHT22;48433;53.016;-2.260;2023-02-18T08:13:49;11.50;99.90
59309;DHT22;48433;53.016;-2.260;2023-02-18T08:16:20;11.50;99.90
59309;DHT22;48433;53.016;-2.260;2023-02-18T08:18:49;11.60;99.90
59309;DHT22;48433;53.016;-2.260;2023-02-18T08:21:19;11.60;99.90
59309;DHT22;48433;53.016;-2.260;2023-02-18T08:23:47;11.70;99.90
59309;DHT22;48433;53.016;-2.260;2023-02-18T08:26:18;11.70;99.90
59309;DHT22;48433;53.016;-2.260;2023-02-18T08:28:47;11.70;99.90
59309;DHT22;48433;53.016;-2.260;2023-02-18T08:31:26;11.80;99.90
59309;DHT22;48433;53.016;-2.260;2023-02-18T08:33:56;11.80;99.90
59309;DHT22;48433;53.016;-2.260;2023-02-18T08:36:24;11.80;99.90
59309;DHT22;48433;53.016;-2.260;2023-02-18T08:38:52;11.80;99.90
59309;DHT22;48433;53.016;-2.260;2023-02-18T08:41:20;11.90;99.90
59309;DHT22;48433;53.016;-2.260;2023-02-18T08:43:48;11.90;99.90
59309;DHT22;48433;53.016;-2.260;2023-02-18T08:46:16;12.00;99.90
59309;DHT22;48433;53.016;-2.260;2023-02-18T08:49:03;12.00;99.90
59309;DHT22;48433;53.016;-2.260;2023-02-18T08:51:41;12.00;99.90
59309;DHT22;48433;53.016;-2.260;2023-02-18T08:54:19;12.00;99.90
59309;DHT22;48433;53.016;-2.260;2023-02-18T08:56:49;12.10;99.90
59309;DHT22;48433;53.016;-2.260;2023-02-18T08:59:19;12.50;99.90
59309;DHT22;48433;53.016;-2.260;2023-02-18T09:01:47;12.80;99.90
59309;DHT22;48433;53.016;-2.260;2023-02-18T09:04:23;13.30;99.90
59309;DHT22;48433;53.016;-2.260;2023-02-18T09:06:54;13.30;99.90
59309;DHT22;48433;53.016;-2.260;2023-02-18T09:09:24;13.40;99.90
59309;DHT22;48433;53.016;-2.260;2023-02-18T09:12:01;13.30;99.90
59309;DHT22;48433;53.016;-2.260;2023-02-18T09:14:28;13.10;99.90
59309;DHT22;48433;53.016;-2.260;2023-02-18T09:17:01;13.00;99.90
59309;DHT22;48433;53.016;-2.260;2023-02-18T09:19:29;12.80;99.90
59309;DHT22;48433;53.016;-2.260;2023-02-18T09:21:57;11.90;99.90
59309;DHT22;48433;53.016;-2.260;2023-02-18T09:24:29;12.90;99.90
59309;DHT22;48433;53.016;-2.260;2023-02-18T09:26:57;13.00;99.90
59309;DHT22;48433;53.016;-2.260;2023-02-18T09:29:24;13.00;99.90
59309;DHT22;48433;53.016;-2.260;2023-02-18T09:31:52;12.90;99.90
59309;DHT22;48433;53.016;-2.260;2023-02-18T09:34:30;12.80;99.90
59309;DHT22;48433;53.016;-2.260;2023-02-18T09:37:22;12.80;99.90
59309;DHT22;48433;53.016;-2.260;2023-02-18T09:39:50;13.80;99.90
59309;DHT22;48433;53.016;-2.260;2023-02-18T09:42:24;14.10;99.90
59309;DHT22;48433;53.016;-2.260;2023-02-18T09:45:03;15.20;99.90
59309;DHT22;48433;53.016;-2.260;2023-02-18T09:47:40;15.20;99.90
59309;DHT22;48433;53.016;-2.260;2023-02-18T09:50:41;15.80;99.90
59309;DHT22;48433;53.016;-2.260;2023-02-18T09:53:29;16.50;99.90
59309;DHT22;48433;53.016;-2.260;2023-02-18T09:56:00;17.10;99.90
59309;DHT22;48433;53.016;-2.260;2023-02-18T09:58:30;17.80;99.90
59309;DHT22;48433;53.016;-2.260;2023-02-18T10:01:20;18.00;99.90
59309;DHT22;48433;53.016;-2.260;2023-02-18T10:03:57;17.90;99.90
59309;DHT22;48433;53.016;-2.260;2023-02-18T10:06:35;17.70;99.90
59309;DHT22;48433;53.016;-2.260;2023-02-18T10:09:20;17.70;99.90
59309;DHT22;48433;53.016;-2.260;2023-02-18T10:11:55;17.90;99.90
59309;DHT22;48433;53.016;-2.260;2023-02-18T10:14:23;18.00;99.90
59309;DHT22;48433;53.016;-2.260;2023-02-18T10:16:52;18.40;99.90
59309;DHT22;48433;53.016;-2.260;2023-02-18T10:19:28;18.90;99.90
59309;DHT22;48433;53.016;-2.260;2023-02-18T10:22:00;19.40;99.90
59309;DHT22;48433;53.016;-2.260;2023-02-18T10:24:35;19.50;99.90
59309;DHT22;48433;53.016;-2.260;2023-02-18T10:27:25;19.60;99.90
59309;DHT22;48433;53.016;-2.260;2023-02-18T10:31:23;19.60;99.90
59309;DHT22;48433;53.016;-2.260;2023-02-18T10:33:44;19.70;99.90
59309;DHT22;48433;53.016;-2.260;2023-02-18T10:39:14;19.40;99.90
59309;DHT22;48433;53.016;-2.260;2023-02-18T10:42:04;19.30;99.90
59309;DHT22;48433;53.016;-2.260;2023-02-18T10:45:03;19.40;99.90
59309;DHT22;48433;53.016;-2.260;2023-02-18T10:50:44;19.90;99.70
59309;DHT22;48433;53.016;-2.260;2023-02-18T10:53:32;20.30;98.40
59309;DHT22;48433;53.016;-2.260;2023-02-18T10:56:01;20.60;97.10
59309;DHT22;48433;53.016;-2.260;2023-02-18T11:01:12;21.00;95.80
59309;DHT22;48433;53.016;-2.260;2023-02-18T11:03:50;21.00;95.50
59309;DHT22;48433;53.016;-2.260;2023-02-18T11:06:33;20.70;94.60
59309;DHT22;48433;53.016;-2.260;2023-02-18T11:09:06;20.80;95.00
59309;DHT22;48433;53.016;-2.260;2023-02-18T11:11:37;20.40;95.00
59309;DHT22;48433;53.016;-2.260;2023-02-18T11:14:07;20.30;95.50
59309;DHT22;48433;53.016;-2.260;2023-02-18T11:16:40;19.80;95.00
59309;DHT22;48433;53.016;-2.260;2023-02-18T11:19:31;19.10;96.40
59309;DHT22;48433;53.016;-2.260;2023-02-18T11:22:32;18.10;98.60
59309;DHT22;48433;53.016;-2.260;2023-02-18T11:25:13;17.80;99.80
59309;DHT22;48433;53.016;-2.260;2023-02-18T11:27:48;17.50;99.90
59309;DHT22;48433;53.016;-2.260;2023-02-18T11:32:44;17.70;99.90
59309;DHT22;48433;53.016;-2.260;2023-02-18T11:35:20;17.70;99.90
59309;DHT22;48433;53.016;-2.260;2023-02-18T11:37:49;17.70;99.90
59309;DHT22;48433;53.016;-2.260;2023-02-18T11:40:33;17.70;99.90
59309;DHT22;48433;53.016;-2.260;2023-02-18T11:43:06;17.10;99.90
59309;DHT22;48433;53.016;-2.260;2023-02-18T11:45:38;17.00;99.90
59309;DHT22;48433;53.016;-2.260;2023-02-18T11:48:22;16.40;99.90
59309;DHT22;48433;53.016;-2.260;2023-02-18T11:50:52;16.20;99.90
59309;DHT22;48433;53.016;-2.260;2023-02-18T11:53:33;16.20;99.90
59309;DHT22;48433;53.016;-2.260;2023-02-18T11:56:16;16.00;99.90
59309;DHT22;48433;53.016;-2.260;2023-02-18T11:58:47;15.70;99.90
59309;DHT22;48433;53.016;-2.260;2023-02-18T12:01:40;15.40;99.90
59309;DHT22;48433;53.016;-2.260;2023-02-18T12:04:15;15.40;99.90
59309;DHT22;48433;53.016;-2.260;2023-02-18T12:09:53;15.20;99.90
59309;DHT22;48433;53.016;-2.260;2023-02-18T12:12:37;14.90;99.90
59309;DHT22;48433;53.016;-2.260;2023-02-18T12:24:45;14.40;99.90
59309;DHT22;48433;53.016;-2.260;2023-02-18T12:27:42;14.30;99.90
59309;DHT22;48433;53.016;-2.260;2023-02-18T12:33:05;14.30;99.90
59309;DHT22;48433;53.016;-2.260;2023-02-18T12:49:37;13.90;99.90
59309;DHT22;48433;53.016;-2.260;2023-02-18T12:57:45;13.80;99.90
59309;DHT22;48433;53.016;-2.260;2023-02-18T13:14:28;14.00;99.90
59309;DHT22;48433;53.016;-2.260;2023-02-18T13:17:04;14.00;99.90
59309;DHT22;48433;53.016;-2.260;2023-02-18T13:20:02;14.00;99.90
59309;DHT22;48433;53.016;-2.260;2023-02-18T13:22:43;13.90;99.90
59309;DHT22;48433;53.016;-2.260;2023-02-18T13:25:14;14.10;99.90
59309;DHT22;48433;53.016;-2.260;2023-02-18T13:34:19;15.80;99.90
59309;DHT22;48433;53.016;-2.260;2023-02-18T13:37:14;15.50;99.90
59309;DHT22;48433;53.016;-2.260;2023-02-18T13:39:53;15.50;99.90
59309;DHT22;48433;53.016;-2.260;2023-02-18T13:42:39;15.10;99.90
59309;DHT22;48433;53.016;-2.260;2023-02-18T13:45:26;15.10;99.90
59309;DHT22;48433;53.016;-2.260;2023-02-18T13:47:55;15.00;99.90
59309;DHT22;48433;53.016;-2.260;2023-02-18T13:50:30;14.90;99.90
59309;DHT22;48433;53.016;-2.260;2023-02-18T13:55:57;15.00;99.90
59309;DHT22;48433;53.016;-2.260;2023-02-18T13:58:31;15.00;99.90
59309;DHT22;48433;53.016;-2.260;2023-02-18T14:01:05;14.80;99.90
59309;DHT22;48433;53.016;-2.260;2023-02-18T14:06:23;14.60;99.90
59309;DHT22;48433;53.016;-2.260;2023-02-18T14:11:33;14.50;99.90
59309;DHT22;48433;53.016;-2.260;2023-02-18T14:19:58;14.30;99.90
59309;DHT22;48433;53.016;-2.260;2023-02-18T14:22:48;14.20;99.90
59309;DHT22;48433;53.016;-2.260;2023-02-18T14:27:52;14.10;99.90
59309;DHT22;48433;53.016;-2.260;2023-02-18T14:30:37;14.10;99.90
59309;DHT22;48433;53.016;-2.260;2023-02-18T14:33:05;14.10;99.90
59309;DHT22;48433;53.016;-2.260;2023-02-18T14:35:37;14.10;99.90
59309;DHT22;48433;53.016;-2.260;2023-02-18T14:41:00;14.00;99.90
59309;DHT22;48433;53.016;-2.260;2023-02-18T14:49:16;14.10;99.90
59309;DHT22;48433;53.016;-2.260;2023-02-18T14:51:47;14.10;99.90
59309;DHT22;48433;53.016;-2.260;2023-02-18T14:54:18;14.00;99.90
59309;DHT22;48433;53.016;-2.260;2023-02-18T14:59:26;13.90;99.90
59309;DHT22;48433;53.016;-2.260;2023-02-18T15:01:55;13.70;99.90
59309;DHT22;48433;53.016;-2.260;2023-02-18T15:04:24;13.60;99.90
59309;DHT22;48433;53.016;-2.260;2023-02-18T15:07:00;13.60;99.90
59309;DHT22;48433;53.016;-2.260;2023-02-18T15:09:28;13.40;99.90
59309;DHT22;48433;53.016;-2.260;2023-02-18T15:12:02;13.40;99.90
59309;DHT22;48433;53.016;-2.260;2023-02-18T15:14:39;13.20;99.90
59309;DHT22;48433;53.016;-2.260;2023-02-18T15:17:19;13.20;99.90
59309;DHT22;48433;53.016;-2.260;2023-02-18T15:19:52;13.20;99.90
59309;DHT22;48433;53.016;-2.260;2023-02-18T15:22:22;13.20;99.90
59309;DHT22;48433;53.016;-2.260;2023-02-18T15:24:53;13.20;99.90
59309;DHT22;48433;53.016;-2.260;2023-02-18T15:27:24;13.20;99.90
59309;DHT22;48433;53.016;-2.260;2023-02-18T15:30:02;13.20;99.90
59309;DHT22;48433;53.016;-2.260;2023-02-18T15:32:31;13.20;99.90
59309;DHT22;48433;53.016;-2.260;2023-02-18T15:35:01;13.10;99.90
59309;DHT22;48433;53.016;-2.260;2023-02-18T15:37:30;13.10;99.90
59309;DHT22;48433;53.016;-2.260;2023-02-18T15:39:58;13.20;99.90
59309;DHT22;48433;53.016;-2.260;2023-02-18T15:42:34;13.20;99.90
59309;DHT22;48433;53.016;-2.260;2023-02-18T15:45:03;13.20;99.90
59309;DHT22;48433;53.016;-2.260;2023-02-18T15:47:32;13.20;99.90
59309;DHT22;48433;53.016;-2.260;2023-02-18T15:50:00;13.20;99.90
59309;DHT22;48433;53.016;-2.260;2023-02-18T15:52:33;13.20;99.90
59309;DHT22;48433;53.016;-2.260;2023-02-18T15:55:12;13.10;99.90
59309;DHT22;48433;53.016;-2.260;2023-02-18T15:57:41;13.10;99.90
59309;DHT22;48433;53.016;-2.260;2023-02-18T16:00:19;13.10;99.90
59309;DHT22;48433;53.016;-2.260;2023-02-18T16:05:51;13.10;99.90
59309;DHT22;48433;53.016;-2.260;2023-02-18T16:08:33;13.00;99.90
59309;DHT22;48433;53.016;-2.260;2023-02-18T16:11:10;12.90;99.90
59309;DHT22;48433;53.016;-2.260;2023-02-18T16:13:45;12.80;99.90
59309;DHT22;48433;53.016;-2.260;2023-02-18T16:16:37;12.60;99.90
59309;DHT22;48433;53.016;-2.260;2023-02-18T16:19:23;12.60;99.90
59309;DHT22;48433;53.016;-2.260;2023-02-18T16:21:51;12.60;99.90
59309;DHT22;48433;53.016;-2.260;2023-02-18T16:24:28;12.50;99.90
59309;DHT22;48433;53.016;-2.260;2023-02-18T16:26:57;12.50;99.90
59309;DHT22;48433;53.016;-2.260;2023-02-18T16:32:02;12.50;99.90
59309;DHT22;48433;53.016;-2.260;2023-02-18T16:34:30;12.40;99.90
59309;DHT22;48433;53.016;-2.260;2023-02-18T16:36:58;12.40;99.90
59309;DHT22;48433;53.016;-2.260;2023-02-18T16:39:44;12.40;99.90
59309;DHT22;48433;53.016;-2.260;2023-02-18T16:42:12;12.40;99.90
59309;DHT22;48433;53.016;-2.260;2023-02-18T16:44:40;12.40;99.90
59309;DHT22;48433;53.016;-2.260;2023-02-18T16:47:11;12.40;99.90
59309;DHT22;48433;53.016;-2.260;2023-02-18T16:49:44;12.30;99.90
59309;DHT22;48433;53.016;-2.260;2023-02-18T16:52:14;12.30;99.90
59309;DHT22;48433;53.016;-2.260;2023-02-18T16:54:43;12.20;99.90
59309;DHT22;48433;53.016;-2.260;2023-02-18T16:57:10;12.30;99.90
59309;DHT22;48433;53.016;-2.260;2023-02-18T16:59:38;12.30;99.90
59309;DHT22;48433;53.016;-2.260;2023-02-18T17:02:14;12.20;99.90
59309;DHT22;48433;53.016;-2.260;2023-02-18T17:04:47;12.20;99.90
59309;DHT22;48433;53.016;-2.260;2023-02-18T17:07:14;12.10;99.90
59309;DHT22;48433;53.016;-2.260;2023-02-18T17:09:42;12.10;99.90
59309;DHT22;48433;53.016;-2.260;2023-02-18T17:12:09;12.00;99.90
59309;DHT22;48433;53.016;-2.260;2023-02-18T17:14:38;12.00;99.90
59309;DHT22;48433;53.016;-2.260;2023-02-18T17:17:10;12.00;99.90
59309;DHT22;48433;53.016;-2.260;2023-02-18T17:19:39;11.90;99.90
59309;DHT22;48433;53.016;-2.260;2023-02-18T17:22:09;11.90;99.90
59309;DHT22;48433;53.016;-2.260;2023-02-18T17:24:40;11.90;99.90
59309;DHT22;48433;53.016;-2.260;2023-02-18T17:27:09;11.90;99.90
59309;DHT22;48433;53.016;-2.260;2023-02-18T17:29:40;11.80;99.90
59309;DHT22;48433;53.016;-2.260;2023-02-18T17:32:21;11.80;99.90
59309;DHT22;48433;53.016;-2.260;2023-02-18T17:34:57;11.80;99.90
59309;DHT22;48433;53.016;-2.260;2023-02-18T17:37:30;11.80;99.90
59309;DHT22;48433;53.016;-2.260;2023-02-18T17:39:58;11.80;99.90
59309;DHT22;48433;53.016;-2.260;2023-02-18T17:42:25;11.70;99.90
59309;DHT22;48433;53.016;-2.260;2023-02-18T17:45:00;11.80;99.90
59309;DHT22;48433;53.016;-2.260;2023-02-18T17:47:40;11.80;99.90
59309;DHT22;48433;53.016;-2.260;2023-02-18T17:50:13;11.80;99.90
59309;DHT22;48433;53.016;-2.260;2023-02-18T17:52:42;11.80;99.90
59309;DHT22;48433;53.016;-2.260;2023-02-18T17:55:29;11.70;99.90
59309;DHT22;48433;53.016;-2.260;2023-02-18T17:58:20;11.80;99.90
59309;DHT22;48433;53.016;-2.260;2023-02-18T18:00:55;11.70;99.90
59309;DHT22;48433;53.016;-2.260;2023-02-18T18:03:26;11.80;99.90
59309;DHT22;48433;53.016;-2.260;2023-02-18T18:05:53;11.80;99.90
59309;DHT22;48433;53.016;-2.260;2023-02-18T18:08:26;11.70;99.90
59309;DHT22;48433;53.016;-2.260;2023-02-18T18:11:03;11.70;99.90
59309;DHT22;48433;53.016;-2.260;2023-02-18T18:13:34;11.70;99.90
59309;DHT22;48433;53.016;-2.260;2023-02-18T18:16:05;11.70;99.90
59309;DHT22;48433;53.016;-2.260;2023-02-18T18:18:33;11.70;99.90
59309;DHT22;48433;53.016;-2.260;2023-02-18T18:21:04;11.70;99.90
59309;DHT22;48433;53.016;-2.260;2023-02-18T18:23:32;11.60;99.90